createdAt,value
2023-10-09T00:01:52.993Z,101606.47
2023-10-09T00:04:21.442Z,101603.16
2023-10-09T00:06:48.125Z,101607.03
2023-10-09T00:09:26.426Z,101601.06
2023-10-09T00:12:01.189Z,101598.00
2023-10-09T00:14:39.773Z,101605.78
2023-10-09T00:17:21.909Z,101598.16
2023-10-09T00:19:52.700Z,101597.34
2023-10-09T00:22:25.843Z,101603.06
2023-10-09T00:25:11.086Z,101603.06
2023-10-09T00:27:46.189Z,101595.41
2023-10-09T00:30:22.680Z,101596.56
2023-10-09T00:33:00.687Z,101591.66
2023-10-09T00:35:37.730Z,101594.69
2023-10-09T00:38:15.675Z,101590.00
2023-10-09T00:40:48.082Z,101595.41
2023-10-09T00:43:15.239Z,101594.28
2023-10-09T00:45:45.096Z,101592.81
2023-10-09T00:48:15.236Z,101586.53
2023-10-09T00:50:48.797Z,101581.56
2023-10-09T00:53:19.413Z,101580.44
2023-10-09T00:55:46.990Z,101582.66
2023-10-09T00:58:15.140Z,101571.72
2023-10-09T01:00:46.080Z,101574.13
2023-10-09T01:03:21.056Z,101567.59
2023-10-09T01:06:07.141Z,101561.25
2023-10-09T01:08:44.636Z,101560.09
2023-10-09T01:11:11.250Z,101559.53
2023-10-09T01:13:47.668Z,101551.63
2023-10-09T01:16:17.043Z,101552.97
2023-10-09T01:18:51.696Z,101561.09
2023-10-09T01:21:19.381Z,101556.41
2023-10-09T01:24:05.846Z,101552.22
2023-10-09T01:26:45.959Z,101553.34
2023-10-09T01:29:19.968Z,101546.72
2023-10-09T01:31:56.372Z,101543.31
2023-10-09T01:34:40.053Z,101533.41
2023-10-09T01:37:13.217Z,101525.78
2023-10-09T01:39:43.618Z,101518.97
2023-10-09T01:42:10.990Z,101514.47
2023-10-09T01:44:44.153Z,101512.47
2023-10-09T01:47:15.102Z,101508.69
2023-10-09T01:49:45.190Z,101517.00
2023-10-09T01:52:16.733Z,101516.69
2023-10-09T01:54:49.960Z,101515.19
2023-10-09T01:57:23.265Z,101511.41
2023-10-09T01:59:51.178Z,101526.81
2023-10-09T02:02:28.001Z,101518.03
2023-10-09T02:05:15.868Z,101530.16
2023-10-09T02:07:45.546Z,101526.56
2023-10-09T02:10:27.224Z,101514.31
2023-10-09T02:13:00.780Z,101522.53
2023-10-09T02:15:46.893Z,101521.34
2023-10-09T02:18:24.451Z,101531.00
2023-10-09T02:21:00.540Z,101525.34
2023-10-09T02:23:39.711Z,101523.75
2023-10-09T02:26:25.603Z,101530.88
2023-10-09T02:29:16.030Z,101534.88
2023-10-09T02:31:45.526Z,101536.84
2023-10-09T02:34:12.416Z,101528.19
2023-10-09T02:36:42.480Z,101532.69
2023-10-09T02:39:24.099Z,101535.44
2023-10-09T02:41:51.888Z,101529.47
2023-10-09T02:44:25.890Z,101527.72
2023-10-09T02:46:52.909Z,101529.38
2023-10-09T02:49:19.616Z,101514.63
2023-10-09T02:51:49.408Z,101511.88
2023-10-09T02:54:24.980Z,101519.66
2023-10-09T02:57:09.000Z,101521.28
2023-10-09T02:59:39.485Z,101522.94
2023-10-09T03:02:05.944Z,101515.81
2023-10-09T03:04:32.382Z,101508.66
2023-10-09T03:06:59.609Z,101509.78
2023-10-09T03:09:29.951Z,101506.53
2023-10-09T03:12:03.430Z,101512.81
2023-10-09T03:14:36.446Z,101513.41
2023-10-09T03:17:03.169Z,101507.28
2023-10-09T03:19:30.543Z,101515.25
2023-10-09T03:22:00.446Z,101514.19
2023-10-09T03:24:28.649Z,101506.72
2023-10-09T03:26:58.148Z,101508.06
2023-10-09T03:29:25.781Z,101503.97
2023-10-09T03:31:52.682Z,101503.09
2023-10-09T03:34:19.581Z,101501.47
2023-10-09T03:36:49.186Z,101505.28
2023-10-09T03:39:34.206Z,101493.72
2023-10-09T03:42:00.792Z,101501.47
2023-10-09T03:44:30.030Z,101502.50
2023-10-09T03:46:56.554Z,101501.22
2023-10-09T03:49:27.194Z,101499.31
2023-10-09T03:51:54.034Z,101504.47
2023-10-09T03:54:21.945Z,101493.28
2023-10-09T03:56:52.350Z,101501.22
2023-10-09T03:59:21.034Z,101494.34
2023-10-09T04:01:52.458Z,101491.56
2023-10-09T04:04:23.954Z,101494.34
2023-10-09T04:06:52.591Z,101487.22
2023-10-09T04:09:19.552Z,101480.63
2023-10-09T04:12:11.335Z,101485.06
2023-10-09T04:14:51.040Z,101473.81
2023-10-09T04:17:36.518Z,101490.53
2023-10-09T04:20:36.019Z,101478.56
2023-10-09T04:23:07.423Z,101487.56
2023-10-09T04:25:43.418Z,101468.69
2023-10-09T04:28:13.130Z,101470.59
2023-10-09T04:30:48.082Z,101464.94
2023-10-09T04:33:41.809Z,101465.75
2023-10-09T04:36:22.911Z,101475.88
2023-10-09T04:39:17.307Z,101473.66
2023-10-09T04:41:43.996Z,101477.75
2023-10-09T04:44:21.086Z,101471.75
2023-10-09T04:47:08.282Z,101473.09
2023-10-09T04:49:54.914Z,101473.72
2023-10-09T04:52:29.933Z,101480.22
2023-10-09T04:55:12.076Z,101480.22
2023-10-09T04:57:46.273Z,101471.44
2023-10-09T05:00:25.798Z,101477.22
2023-10-09T05:02:58.265Z,101463.81
2023-10-09T05:05:42.240Z,101465.38
2023-10-09T05:08:22.855Z,101466.50
2023-10-09T05:11:00.861Z,101468.25
2023-10-09T05:13:42.101Z,101464.41
2023-10-09T05:16:20.106Z,101469.94
2023-10-09T05:18:57.232Z,101465.53
2023-10-09T05:21:33.847Z,101466.09
2023-10-09T05:24:13.533Z,101457.59
2023-10-09T05:26:50.779Z,101452.19
2023-10-09T05:29:36.013Z,101460.16
2023-10-09T05:32:04.936Z,101470.03
2023-10-09T05:34:35.302Z,101464.78
2023-10-09T05:37:25.977Z,101460.69
2023-10-09T05:40:02.702Z,101461.31
2023-10-09T05:42:44.053Z,101463.78
2023-10-09T05:45:19.715Z,101458.22
2023-10-09T05:47:54.957Z,101458.78
2023-10-09T05:50:24.937Z,101465.63
2023-10-09T05:52:52.159Z,101473.84
2023-10-09T05:55:37.532Z,101465.06
2023-10-09T05:58:10.226Z,101474.72
2023-10-09T06:00:55.534Z,101477.75
2023-10-09T06:03:22.336Z,101487.53
2023-10-09T06:05:59.643Z,101485.31
2023-10-09T06:08:48.294Z,101490.16
2023-10-09T06:11:34.130Z,101476.81
2023-10-09T06:14:11.121Z,101480.97
2023-10-09T06:17:00.841Z,101482.66
2023-10-09T06:19:28.300Z,101481.53
2023-10-09T06:22:04.815Z,101494.72
2023-10-09T06:24:34.680Z,101499.72
2023-10-09T06:27:01.223Z,101497.00
2023-10-09T06:29:37.402Z,101492.38
2023-10-09T06:32:19.609Z,101491.63
2023-10-09T06:34:47.612Z,101501.53
2023-10-09T06:37:26.084Z,101501.53
2023-10-09T06:39:57.347Z,101505.34
2023-10-09T06:42:34.377Z,101516.56
2023-10-09T06:45:09.735Z,101518.41
2023-10-09T06:47:42.750Z,101528.78
2023-10-09T06:50:25.449Z,101541.97
2023-10-09T06:52:58.561Z,101541.47
2023-10-09T06:55:44.166Z,101534.66
2023-10-09T06:58:16.513Z,101540.25
2023-10-09T07:01:15.498Z,101545.53
2023-10-09T07:03:54.162Z,101547.22
2023-10-09T07:06:46.599Z,101546.13
2023-10-09T07:09:14.360Z,101562.00
2023-10-09T07:11:45.408Z,101570.25
2023-10-09T07:14:31.355Z,101559.28
2023-10-09T07:17:16.844Z,101560.97
2023-10-09T07:19:44.277Z,101560.72
2023-10-09T07:22:22.722Z,101559.97
2023-10-09T07:24:59.695Z,101553.69
2023-10-09T07:27:50.999Z,101568.25
2023-10-09T07:30:31.598Z,101559.53
2023-10-09T07:33:17.829Z,101562.56
2023-10-09T07:35:47.119Z,101575.22
2023-10-09T07:38:20.301Z,101572.53
2023-10-09T07:41:17.339Z,101559.69
2023-10-09T07:43:46.662Z,101557.53
2023-10-09T07:46:33.678Z,101557.84
2023-10-09T07:49:13.241Z,101558.41
2023-10-09T07:51:48.019Z,101564.75
2023-10-09T07:54:32.998Z,101566.75
2023-10-09T07:57:17.293Z,101578.56
2023-10-09T07:59:55.643Z,101581.09
2023-10-09T08:02:32.693Z,101579.72
2023-10-09T08:05:19.614Z,101583.31
2023-10-09T08:08:26.921Z,101591.56
2023-10-09T08:11:23.230Z,101581.69
2023-10-09T08:14:01.690Z,101577.56
2023-10-09T08:16:37.375Z,101586.34
2023-10-09T08:19:28.335Z,101570.47
2023-10-09T08:22:13.562Z,101560.56
2023-10-09T08:24:43.185Z,101561.38
2023-10-09T08:27:28.946Z,101566.63
2023-10-09T08:30:15.504Z,101560.03
2023-10-09T08:35:31.985Z,101568.81
2023-10-09T08:38:10.205Z,101560.31
2023-10-09T08:40:40.221Z,101561.69
2023-10-09T08:43:17.378Z,101552.34
2023-10-09T08:46:02.018Z,101540.84
2023-10-09T08:48:28.794Z,101535.59
2023-10-09T08:50:56.524Z,101578.19
2023-10-09T08:53:25.290Z,101614.75
2023-10-09T08:55:52.342Z,101615.56
2023-10-09T08:58:26.088Z,101619.97
2023-10-09T09:00:53.550Z,101621.06
2023-10-09T09:03:26.950Z,101616.09
2023-10-09T09:06:04.764Z,101609.50
2023-10-09T09:08:37.889Z,101593.00
2023-10-09T09:11:12.939Z,101596.03
2023-10-09T09:13:49.698Z,101581.19
2023-10-09T09:16:30.842Z,101564.41
2023-10-09T09:19:09.882Z,101541.34
2023-10-09T09:21:40.880Z,101532.50
2023-10-09T09:24:27.899Z,101517.09
2023-10-09T09:27:10.857Z,101531.94
2023-10-09T09:29:38.438Z,101515.13
2023-10-09T09:32:21.293Z,101503.56
2023-10-09T09:34:51.080Z,101501.34
2023-10-09T09:37:51.360Z,101503.53
2023-10-09T09:40:35.768Z,101503.19
2023-10-09T09:43:07.095Z,101495.50
2023-10-09T09:45:35.908Z,101502.59
2023-10-09T09:48:07.194Z,101492.66
2023-10-09T09:50:34.443Z,101484.88
2023-10-09T09:53:00.843Z,101491.97
2023-10-09T09:55:35.306Z,101493.03
2023-10-09T09:58:07.309Z,101506.66
2023-10-09T10:00:42.313Z,101500.72
2023-10-09T10:03:23.933Z,101495.94
2023-10-09T10:05:52.591Z,101497.03
2023-10-09T10:08:21.636Z,101489.88
2023-10-09T10:10:54.961Z,101486.72
2023-10-09T10:13:41.318Z,101502.63
2023-10-09T10:16:14.158Z,101495.31
2023-10-09T10:19:00.748Z,101500.50
2023-10-09T10:21:39.873Z,101506.28
2023-10-09T10:24:32.243Z,101489.38
2023-10-09T10:27:10.723Z,101498.66
2023-10-09T10:29:39.504Z,101487.00
2023-10-09T10:32:10.089Z,101489.19
2023-10-09T10:34:58.624Z,101488.53
2023-10-09T10:37:45.435Z,101486.78
2023-10-09T10:40:25.414Z,101484.47
2023-10-09T10:43:10.416Z,101487.09
2023-10-09T10:45:44.469Z,101492.84
2023-10-09T10:48:24.127Z,101488.38
2023-10-09T10:50:58.427Z,101485.78
2023-10-09T10:53:30.435Z,101486.53
2023-10-09T10:56:13.920Z,101491.66
2023-10-09T10:59:12.801Z,101494.44
2023-10-09T11:01:55.139Z,101504.56
2023-10-09T11:04:39.848Z,101507.84
2023-10-09T11:07:25.921Z,101503.69
2023-10-09T11:10:08.145Z,101508.00
2023-10-09T11:12:53.395Z,101505.16
2023-10-09T11:15:45.444Z,101518.38
2023-10-09T11:18:29.247Z,101507.25
2023-10-09T11:21:04.202Z,101513.91
2023-10-09T11:23:40.648Z,101498.06
2023-10-09T11:26:26.793Z,101498.81
2023-10-09T11:29:17.585Z,101502.63
2023-10-09T11:32:07.111Z,101502.03
2023-10-09T11:34:35.998Z,101505.81
2023-10-09T11:37:05.384Z,101500.00
2023-10-09T11:39:35.519Z,101502.38
2023-10-09T11:42:06.500Z,101497.06
2023-10-09T11:44:36.626Z,101489.59
2023-10-09T11:47:23.750Z,101488.97
2023-10-09T11:50:13.225Z,101508.31
2023-10-09T11:53:15.450Z,101498.78
2023-10-09T11:55:42.174Z,101503.50
2023-10-09T11:58:09.972Z,101504.00
2023-10-09T12:00:46.724Z,101495.72
2023-10-09T12:03:14.229Z,101504.53
2023-10-09T12:05:44.925Z,101497.91
2023-10-09T12:08:15.255Z,101488.97
2023-10-09T12:10:42.105Z,101492.19
2023-10-09T12:13:08.661Z,101489.13
2023-10-09T12:15:38.597Z,101500.19
2023-10-09T12:18:12.449Z,101499.97
2023-10-09T12:20:40.251Z,101497.19
2023-10-09T12:23:07.150Z,101497.78
2023-10-09T12:25:36.087Z,101496.16
2023-10-09T12:28:03.883Z,101492.25
2023-10-09T12:30:31.319Z,101497.19
2023-10-09T12:32:58.995Z,101500.97
2023-10-09T12:35:26.545Z,101500.47
2023-10-09T12:37:55.653Z,101496.06
2023-10-09T12:40:30.368Z,101502.72
2023-10-09T12:42:59.968Z,101496.06
2023-10-09T12:45:27.316Z,101494.22
2023-10-09T12:48:00.325Z,101488.97
2023-10-09T12:50:29.864Z,101478.53
2023-10-09T12:53:03.731Z,101476.28
2023-10-09T12:55:33.177Z,101478.44
2023-10-09T12:58:07.388Z,101485.41
2023-10-09T13:00:38.589Z,101488.97
2023-10-09T13:03:17.903Z,101474.06
2023-10-09T13:05:59.215Z,101476.28
2023-10-09T13:08:36.008Z,101476.91
2023-10-09T13:11:12.695Z,101472.00
2023-10-09T13:13:41.512Z,101483.84
2023-10-09T13:16:25.938Z,101491.00
2023-10-09T13:19:00.751Z,101493.56
2023-10-09T13:21:32.786Z,101495.13
2023-10-09T13:24:01.280Z,101490.19
2023-10-09T13:26:36.997Z,101489.38
2023-10-09T13:29:04.579Z,101485.81
2023-10-09T13:31:34.928Z,101484.44
2023-10-09T13:34:02.277Z,101488.56
2023-10-09T13:36:32.317Z,101496.94
2023-10-09T13:39:19.917Z,101505.22
2023-10-09T13:41:58.789Z,101491.41
2023-10-09T13:44:29.482Z,101489.75
2023-10-09T13:46:57.480Z,101487.00
2023-10-09T13:49:24.268Z,101489.25
2023-10-09T13:51:57.586Z,101491.41
2023-10-09T13:54:33.306Z,101492.50
2023-10-09T13:57:05.672Z,101489.16
2023-10-09T13:59:33.691Z,101493.06
2023-10-09T14:02:00.711Z,101493.25
2023-10-09T14:04:27.376Z,101490.72
2023-10-09T14:06:58.090Z,101491.75
2023-10-09T14:09:46.141Z,101487.75
2023-10-09T14:12:15.177Z,101477.06
2023-10-09T14:14:50.200Z,101477.25
2023-10-09T14:17:29.258Z,101472.88
2023-10-09T14:20:17.757Z,101478.91
2023-10-09T14:22:46.386Z,101483.50
2023-10-09T14:25:16.241Z,101487.00
2023-10-09T14:27:42.837Z,101496.00
2023-10-09T14:30:19.841Z,101492.09
2023-10-09T14:32:52.437Z,101496.75
2023-10-09T14:35:22.594Z,101496.63
2023-10-09T14:37:49.025Z,101492.31
2023-10-09T14:40:21.807Z,101480.91
2023-10-09T14:42:48.669Z,101486.00
2023-10-09T14:45:17.992Z,101481.72
2023-10-09T14:47:44.616Z,101480.22
2023-10-09T14:50:14.565Z,101482.91
2023-10-09T14:52:41.594Z,101487.63
2023-10-09T14:55:09.186Z,101479.25
2023-10-09T14:57:35.530Z,101485.78
2023-10-09T15:00:08.679Z,101482.41
2023-10-09T15:02:35.253Z,101477.19
2023-10-09T15:05:01.834Z,101473.31
2023-10-09T15:07:40.264Z,101464.66
2023-10-09T15:10:10.393Z,101466.81
2023-10-09T15:12:43.756Z,101459.13
2023-10-09T15:15:16.772Z,101457.28
2023-10-09T15:17:45.195Z,101459.56
2023-10-09T15:20:16.239Z,101458.22
2023-10-09T15:22:43.389Z,101448.28
2023-10-09T15:25:10.709Z,101456.38
2023-10-09T15:27:40.073Z,101453.59
2023-10-09T15:30:09.232Z,101468.56
2023-10-09T15:32:36.192Z,101466.91
2023-10-09T15:35:03.661Z,101475.31
2023-10-09T15:37:30.397Z,101477.25
2023-10-09T15:39:56.776Z,101477.25
2023-10-09T15:42:23.481Z,101483.69
2023-10-09T15:44:55.758Z,101467.91
2023-10-09T15:47:22.715Z,101474.88
2023-10-09T15:49:49.152Z,101479.38
2023-10-09T15:52:17.328Z,101472.22
2023-10-09T15:54:44.280Z,101482.22
2023-10-09T15:57:13.658Z,101478.22
2023-10-09T15:59:40.734Z,101480.78
2023-10-09T16:02:07.257Z,101490.13
2023-10-09T16:04:34.965Z,101481.81
2023-10-09T16:07:02.526Z,101485.69
2023-10-09T16:09:30.744Z,101483.56
2023-10-09T16:11:57.254Z,101491.72
2023-10-09T16:14:24.390Z,101497.53
2023-10-09T16:16:51.567Z,101491.59
2023-10-09T16:19:18.651Z,101490.75
2023-10-09T16:21:45.217Z,101497.16
2023-10-09T16:24:11.784Z,101488.88
2023-10-09T16:26:40.802Z,101493.34
2023-10-09T16:29:11.068Z,101494.56
2023-10-09T16:31:41.113Z,101499.34
2023-10-09T16:34:08.570Z,101508.59
2023-10-09T16:36:36.369Z,101506.66
2023-10-09T16:41:35.935Z,101505.31
2023-10-09T16:44:06.463Z,101512.03
2023-10-09T16:46:32.961Z,101510.78
2023-10-09T16:49:02.614Z,101516.06
2023-10-09T16:51:29.054Z,101522.78
2023-10-09T16:53:56.887Z,101521.16
2023-10-09T16:56:23.989Z,101529.72
2023-10-09T16:58:53.363Z,101543.22
2023-10-09T17:01:22.922Z,101534.44
2023-10-09T17:03:59.279Z,101536.06
2023-10-09T17:06:29.672Z,101538.81
2023-10-09T17:08:56.554Z,101541.28
2023-10-09T17:11:24.103Z,101546.28
2023-10-09T17:13:51.000Z,101544.19
2023-10-09T17:16:20.155Z,101539.53
2023-10-09T17:18:47.599Z,101541.25
2023-10-09T17:21:14.949Z,101547.66
2023-10-09T17:23:43.290Z,101542.75
2023-10-09T17:26:11.507Z,101550.28
2023-10-09T17:28:39.081Z,101540.94
2023-10-09T17:31:05.556Z,101552.03
2023-10-09T17:33:32.209Z,101550.97
2023-10-09T17:36:02.232Z,101549.63
2023-10-09T17:38:31.203Z,101561.47
2023-10-09T17:40:59.326Z,101555.50
2023-10-09T17:43:26.467Z,101555.78
2023-10-09T17:45:56.372Z,101563.53
2023-10-09T17:48:23.889Z,101562.81
2023-10-09T17:50:51.093Z,101570.00
2023-10-09T17:53:18.969Z,101570.28
2023-10-09T17:55:47.617Z,101568.41
2023-10-09T17:58:14.743Z,101574.81
2023-10-09T18:00:43.102Z,101566.28
2023-10-09T18:03:16.297Z,101570.75
2023-10-09T18:05:43.375Z,101576.81
2023-10-09T18:08:15.594Z,101570.25
2023-10-09T18:10:44.652Z,101574.75
2023-10-09T18:13:17.890Z,101580.81
2023-10-09T18:15:45.209Z,101587.19
2023-10-09T18:18:13.680Z,101585.03
2023-10-09T18:20:43.807Z,101578.44
2023-10-09T18:23:10.604Z,101589.78
2023-10-09T18:25:38.704Z,101584.81
2023-10-09T18:28:05.679Z,101584.59
2023-10-09T18:30:32.946Z,101589.31
2023-10-09T18:33:00.861Z,101584.41
2023-10-09T18:35:31.701Z,101593.81
2023-10-09T18:38:00.454Z,101587.25
2023-10-09T18:40:32.627Z,101594.97
2023-10-09T18:43:05.043Z,101596.66
2023-10-09T18:45:35.019Z,101594.19
2023-10-09T18:48:02.238Z,101601.13
2023-10-09T18:50:30.657Z,101592.88
2023-10-09T18:52:57.144Z,101589.34
2023-10-09T18:55:23.651Z,101594.03
2023-10-09T18:57:50.316Z,101597.84
2023-10-09T19:00:21.351Z,101592.94
2023-10-09T19:02:51.862Z,101583.31
2023-10-09T19:05:20.301Z,101587.16
2023-10-09T19:07:48.154Z,101579.78
2023-10-09T19:10:21.742Z,101584.75
2023-10-09T19:12:53.573Z,101584.75
2023-10-09T19:15:20.055Z,101583.38
2023-10-09T19:17:46.667Z,101585.31
2023-10-09T19:20:13.378Z,101588.63
2023-10-09T19:22:40.707Z,101597.97
2023-10-09T19:25:27.737Z,101589.72
2023-10-09T19:27:58.134Z,101593.59
2023-10-09T19:30:25.140Z,101593.31
2023-10-09T19:32:51.705Z,101593.59
2023-10-09T19:35:19.277Z,101594.66
2023-10-09T19:37:48.924Z,101579.81
2023-10-09T19:40:15.512Z,101585.59
2023-10-09T19:42:42.073Z,101589.97
2023-10-09T19:45:11.285Z,101589.16
2023-10-09T19:47:41.081Z,101590.81
2023-10-09T19:50:15.067Z,101589.69
2023-10-09T19:52:46.578Z,101591.38
2023-10-09T19:55:13.790Z,101596.56
2023-10-09T19:57:40.527Z,101590.81
2023-10-09T20:00:11.612Z,101598.50
2023-10-09T20:02:39.887Z,101598.22
2023-10-09T20:05:07.264Z,101603.16
2023-10-09T20:07:34.012Z,101600.13
2023-10-09T20:10:02.462Z,101597.09
2023-10-09T20:12:30.857Z,101608.09
2023-10-09T20:14:58.015Z,101602.88
2023-10-09T20:17:25.332Z,101607.81
2023-10-09T20:19:54.065Z,101612.50
2023-10-09T20:22:24.097Z,101610.56
2023-10-09T20:24:50.611Z,101615.78
2023-10-09T20:27:18.324Z,101614.41
2023-10-09T20:29:44.936Z,101616.84
2023-10-09T20:32:17.317Z,101618.78
2023-10-09T20:34:45.201Z,101612.19
2023-10-09T20:37:13.554Z,101614.94
2023-10-09T20:39:41.785Z,101618.75
2023-10-09T20:42:08.296Z,101624.78
2023-10-09T20:44:36.527Z,101630.00
2023-10-09T20:47:04.228Z,101630.53
2023-10-09T20:49:32.979Z,101640.13
2023-10-09T20:51:59.640Z,101638.50
2023-10-09T20:54:26.411Z,101639.59
2023-10-09T20:56:52.918Z,101642.03
2023-10-09T20:59:19.742Z,101634.88
2023-10-09T21:01:46.602Z,101636.25
2023-10-09T21:04:13.761Z,101634.06
2023-10-09T21:06:41.197Z,101637.06
2023-10-09T21:09:08.432Z,101634.06
2023-10-09T21:11:35.057Z,101637.31
2023-10-09T21:14:01.518Z,101633.44
2023-10-09T21:16:28.029Z,101642.22
2023-10-09T21:18:56.949Z,101638.66
2023-10-09T21:21:24.622Z,101640.56
2023-10-09T21:23:51.080Z,101627.41
2023-10-09T21:26:19.462Z,101640.56
2023-10-09T21:28:51.314Z,101643.31
2023-10-09T21:31:19.301Z,101641.13
2023-10-09T21:33:48.878Z,101633.41
2023-10-09T21:36:15.627Z,101640.44
2023-10-09T21:38:42.438Z,101632.78
2023-10-09T21:41:13.339Z,101631.41
2023-10-09T21:43:44.255Z,101630.03
2023-10-09T21:46:11.159Z,101619.88
2023-10-09T21:48:38.938Z,101621.75
2023-10-09T21:51:09.261Z,101626.69
2023-10-09T21:53:36.465Z,101628.88
2023-10-09T21:56:12.523Z,101629.63
2023-10-09T21:58:39.018Z,101631.47
2023-10-09T22:01:09.046Z,101628.16
2023-10-09T22:03:37.234Z,101626.22
2023-10-09T22:06:05.669Z,101621.31
2023-10-09T22:08:34.401Z,101625.97
2023-10-09T22:11:02.970Z,101619.44
2023-10-09T22:13:29.591Z,101625.97
2023-10-09T22:15:56.049Z,101621.06
2023-10-09T22:18:22.855Z,101619.63
2023-10-09T22:20:50.487Z,101623.97
2023-10-09T22:23:20.223Z,101616.53
2023-10-09T22:25:57.307Z,101614.31
2023-10-09T22:28:24.971Z,101606.84
2023-10-09T22:30:54.213Z,101614.25
2023-10-09T22:33:24.809Z,101622.47
2023-10-09T22:35:54.189Z,101611.50
2023-10-09T22:38:24.148Z,101607.66
2023-10-09T22:40:52.548Z,101609.59
2023-10-09T22:43:24.948Z,101616.44
2023-10-09T22:45:53.926Z,101609.53
2023-10-09T22:48:27.405Z,101607.59
2023-10-09T22:51:09.798Z,101613.38
2023-10-09T22:53:39.806Z,101609.22
2023-10-09T22:56:17.322Z,101613.06
2023-10-09T22:58:52.933Z,101614.16
2023-10-09T23:01:24.398Z,101626.19
2023-10-09T23:04:10.852Z,101623.41
2023-10-09T23:06:41.866Z,101619.84
2023-10-09T23:09:18.284Z,101623.94
2023-10-09T23:11:55.179Z,101618.47
2023-10-09T23:14:26.776Z,101616.84
2023-10-09T23:17:06.198Z,101619.03
2023-10-09T23:19:33.549Z,101623.97
2023-10-09T23:22:13.944Z,101621.78
2023-10-09T23:24:51.473Z,101620.03
2023-10-09T23:27:44.199Z,101611.56
2023-10-09T23:30:25.757Z,101612.59
2023-10-09T23:32:53.576Z,101617.72
2023-10-09T23:35:26.477Z,101620.47
2023-10-09T23:38:11.522Z,101612.47
2023-10-09T23:40:41.844Z,101617.09
2023-10-09T23:43:14.364Z,101613.78
2023-10-09T23:45:42.056Z,101621.44
2023-10-09T23:48:15.919Z,101626.91
2023-10-09T23:50:45.226Z,101630.44
2023-10-09T23:53:16.013Z,101629.63
2023-10-09T23:55:44.172Z,101622.97
2023-10-09T23:58:19.821Z,101621.03
